createdAt,value
2022-07-29T00:03:25.717Z,30.93
2022-07-29T00:08:18.283Z,30.93
2022-07-29T00:18:03.461Z,31.07
2022-07-29T00:22:56.129Z,31.03
2022-07-29T00:27:48.727Z,31.16
2022-07-29T00:32:41.492Z,31.17
2022-07-29T00:37:34.222Z,31.1
2022-07-29T00:42:26.601Z,31.08
2022-07-29T00:47:19.077Z,31.22
2022-07-29T00:52:11.710Z,31.31
2022-07-29T00:57:04.286Z,31.36
2022-07-29T01:01:56.843Z,31.38
2022-07-29T01:06:49.567Z,31.41
2022-07-29T01:11:42.138Z,31.38
2022-07-29T01:16:34.736Z,31.42
2022-07-29T01:21:27.257Z,31.49
2022-07-29T01:26:20.374Z,31.55
2022-07-29T01:31:12.397Z,31.66
2022-07-29T01:36:04.825Z,31.73
2022-07-29T01:40:57.798Z,31.72
2022-07-29T01:45:50.364Z,31.79
2022-07-29T01:50:43.005Z,31.74
2022-07-29T01:55:35.681Z,31.83
2022-07-29T02:00:28.017Z,31.9
2022-07-29T02:05:21.036Z,31.83
2022-07-29T02:10:13.561Z,31.93
2022-07-29T02:15:06.403Z,31.92
2022-07-29T02:19:58.859Z,32
2022-07-29T02:24:51.691Z,32.15
2022-07-29T02:29:44.240Z,32.18
2022-07-29T02:34:36.966Z,32.18
2022-07-29T02:39:29.648Z,32.15
2022-07-29T02:44:22.341Z,32.19
2022-07-29T02:49:15.318Z,32.11
2022-07-29T02:54:07.458Z,32.25
2022-07-29T02:58:59.899Z,32.31
2022-07-29T03:03:52.507Z,32.34
2022-07-29T03:08:44.697Z,32.33
2022-07-29T03:13:37.404Z,32.23
2022-07-29T03:18:29.944Z,32.25
2022-07-29T03:23:22.338Z,32.37
2022-07-29T03:28:14.899Z,32.44
2022-07-29T03:33:10.211Z,32.38
2022-07-29T03:38:00.368Z,32.61
2022-07-29T03:42:52.864Z,32.55
2022-07-29T03:47:50.531Z,32.5
2022-07-29T03:52:38.177Z,32.4
2022-07-29T03:57:30.786Z,32.56
2022-07-29T04:02:26.269Z,32.55
2022-07-29T04:07:15.887Z,32.52
2022-07-29T04:12:08.277Z,32.58
2022-07-29T04:17:00.714Z,32.76
2022-07-29T04:21:53.359Z,32.92
2022-07-29T04:26:45.391Z,33.09
2022-07-29T04:31:37.989Z,33.31
2022-07-29T04:36:30.519Z,33.66
2022-07-29T04:41:23.058Z,34.07
2022-07-29T04:46:15.730Z,36.1
2022-07-29T04:51:07.936Z,35.48
2022-07-29T04:56:00.362Z,35.89
2022-07-29T05:00:52.936Z,36.28
2022-07-29T05:05:45.377Z,35.11
2022-07-29T05:10:37.665Z,35.52
2022-07-29T05:15:30.078Z,35.72
2022-07-29T05:20:22.065Z,36.73
2022-07-29T05:25:14.173Z,36.89
2022-07-29T05:30:05.926Z,39.45
2022-07-29T05:34:58.209Z,36.56
2022-07-29T05:39:56.480Z,36.54
2022-07-29T05:44:43.486Z,37.54
2022-07-29T05:54:28.197Z,36.43
2022-07-29T06:04:12.516Z,36.37
2022-07-29T06:13:57.177Z,37.35
2022-07-29T06:18:49.681Z,37.67
2022-07-29T06:23:43.013Z,36.81
2022-07-29T06:33:28.746Z,36.3
2022-07-29T06:38:31.898Z,36.27
2022-07-29T06:43:13.887Z,35.74
2022-07-29T06:48:06.337Z,35.63
2022-07-29T06:52:58.935Z,35.76
2022-07-29T06:57:51.298Z,35.6
2022-07-29T07:02:43.877Z,35.46
2022-07-29T07:07:36.309Z,35.33
2022-07-29T07:12:29.073Z,35.36
2022-07-29T07:17:21.683Z,35.16
2022-07-29T07:22:14.059Z,35.36
2022-07-29T07:27:06.683Z,35.4
2022-07-29T07:32:00.999Z,35.45
2022-07-29T07:36:52.013Z,35.36
2022-07-29T07:41:44.567Z,35.33
2022-07-29T07:46:37.163Z,35.43
2022-07-29T07:51:29.764Z,35.4
2022-07-29T07:56:22.297Z,35.44
2022-07-29T08:01:14.991Z,35.42
2022-07-29T08:06:07.350Z,35.51
2022-07-29T08:10:53.907Z,35.74
2022-07-29T08:15:50.339Z,35.48
2022-07-29T08:20:42.850Z,35.36
2022-07-29T08:25:30.826Z,35.56
2022-07-29T08:30:23.430Z,35.64
2022-07-29T08:35:19.294Z,35.74
2022-07-29T08:40:11.480Z,35.86
2022-07-29T08:45:04.124Z,35.68
2022-07-29T08:49:56.724Z,35.64
2022-07-29T08:54:49.369Z,35.65
2022-07-29T08:59:42.046Z,35.44
2022-07-29T09:04:34.736Z,35.63
2022-07-29T09:09:27.434Z,35.64
2022-07-29T09:14:20.168Z,35.58
2022-07-29T09:19:12.665Z,35.5
2022-07-29T09:24:05.105Z,35.28
2022-07-29T09:28:57.918Z,35.43
2022-07-29T09:33:50.267Z,35.48
2022-07-29T09:38:42.802Z,35.41
2022-07-29T09:43:35.291Z,35.26
2022-07-29T09:48:27.896Z,35.3
2022-07-29T09:53:20.664Z,35.69
2022-07-29T09:58:13.035Z,35.08
2022-07-29T10:03:05.699Z,34.78
2022-07-29T10:07:58.334Z,34.93
2022-07-29T10:12:52.822Z,34.78
2022-07-29T10:17:45.334Z,35.25
2022-07-29T10:22:52.803Z,34.53
2022-07-29T10:27:30.724Z,34.61
2022-07-29T10:32:23.388Z,34.05
2022-07-29T10:37:15.609Z,33.77
2022-07-29T10:42:08.206Z,33.87
2022-07-29T10:47:00.981Z,33.45
2022-07-29T10:51:53.731Z,33.44
2022-07-29T10:56:45.896Z,33.23
2022-07-29T11:01:39.333Z,33.4
2022-07-29T11:06:31.180Z,33.54
2022-07-29T11:11:23.897Z,33.36
2022-07-29T11:16:16.752Z,33.9
2022-07-29T11:21:09.220Z,33.73
2022-07-29T11:26:02.061Z,33.94
2022-07-29T11:30:54.467Z,34.01
2022-07-29T11:35:46.858Z,34.54
2022-07-29T11:40:39.568Z,34.63
2022-07-29T11:45:40.344Z,34.41
2022-07-29T11:50:26.877Z,34.23
2022-07-29T11:55:17.225Z,34.32
2022-07-29T12:00:12.392Z,34.22
2022-07-29T12:05:02.309Z,34.23
2022-07-29T12:09:56.871Z,34.13
2022-07-29T12:14:47.610Z,34.17
2022-07-29T12:19:40.046Z,34.05
2022-07-29T12:24:32.530Z,34
2022-07-29T12:29:34.082Z,34.38
2022-07-29T12:34:18.021Z,34.1
2022-07-29T12:39:10.873Z,34.18
2022-07-29T12:44:03.462Z,34.17
2022-07-29T12:48:56.391Z,34.16
2022-07-29T12:58:41.791Z,34.25
2022-07-29T13:08:27.121Z,34.04
2022-07-29T13:18:13.738Z,34.13
2022-07-29T13:23:04.779Z,34.39
2022-07-29T13:27:57.341Z,34.16
2022-07-29T13:32:50.177Z,34.2
2022-07-29T13:37:42.678Z,34.24
2022-07-29T13:42:35.205Z,34.1
2022-07-29T13:47:32.007Z,34.06
2022-07-29T13:52:20.414Z,34.1
2022-07-29T13:57:12.939Z,34.19
2022-07-29T14:02:05.679Z,34.38
2022-07-29T14:06:58.275Z,34.8
2022-07-29T14:11:50.911Z,34.81
2022-07-29T14:16:47.676Z,35.24
2022-07-29T14:21:36.435Z,35.73
2022-07-29T14:26:28.852Z,35.98
2022-07-29T14:31:21.633Z,36.21
2022-07-29T14:36:16.253Z,36.61
2022-07-29T14:41:08.525Z,36.8
2022-07-29T14:46:05.281Z,37.14
2022-07-29T14:50:54.360Z,37.1
2022-07-29T14:55:47.058Z,37.28
2022-07-29T15:00:39.364Z,37.39
2022-07-29T15:05:31.997Z,37.53
2022-07-29T15:10:24.935Z,37.54
2022-07-29T15:15:17.172Z,37.47
2022-07-29T15:20:09.817Z,37.43
2022-07-29T15:25:02.446Z,37.39
2022-07-29T15:29:55.148Z,37.41
2022-07-29T15:34:47.891Z,37.38
2022-07-29T15:39:40.629Z,37.24
2022-07-29T15:44:33.316Z,37.16
2022-07-29T15:49:26.238Z,37.15
2022-07-29T15:54:18.953Z,37.28
2022-07-29T15:59:11.581Z,37.2
2022-07-29T16:04:04.033Z,37.2
2022-07-29T16:08:56.736Z,37.16
2022-07-29T16:13:49.537Z,36.9
2022-07-29T16:18:42.276Z,36.83
2022-07-29T16:23:34.985Z,36.75
2022-07-29T16:28:27.560Z,36.61
2022-07-29T16:33:20.266Z,36.49
2022-07-29T16:38:12.942Z,36.48
2022-07-29T16:43:05.492Z,36.49
2022-07-29T16:48:00.470Z,36.43
2022-07-29T16:52:50.686Z,36.67
2022-07-29T16:57:43.600Z,36.57
2022-07-29T17:02:36.050Z,36.48
2022-07-29T17:07:28.501Z,39.42
2022-07-29T17:12:21.235Z,39.12
2022-07-29T17:17:13.481Z,37.89
2022-07-29T17:22:18.996Z,37.28
2022-07-29T17:26:58.783Z,37.39
2022-07-29T17:31:51.124Z,37.14
2022-07-29T17:36:43.229Z,36.42
2022-07-29T17:41:35.894Z,36.53
2022-07-29T17:46:28.609Z,36.4
2022-07-29T17:51:21.113Z,38.22
2022-07-29T17:56:13.748Z,36.88
2022-07-29T18:01:06.501Z,38.11
2022-07-29T18:05:58.895Z,36.15
2022-07-29T18:10:51.297Z,35.88
2022-07-29T18:15:43.705Z,35.73
2022-07-29T18:20:35.953Z,35.69
2022-07-29T18:25:28.619Z,35.73
2022-07-29T18:30:21.158Z,35.67
2022-07-29T18:35:13.598Z,35.65
2022-07-29T18:40:06.115Z,35.88
2022-07-29T18:44:58.899Z,35.81
2022-07-29T18:49:51.405Z,36.07
2022-07-29T18:54:43.758Z,36.37
2022-07-29T18:59:36.209Z,36.4
2022-07-29T19:04:29.140Z,36.75
2022-07-29T19:14:13.755Z,36.57
2022-07-29T19:19:06.290Z,36.69
2022-07-29T19:24:00.561Z,37.01
2022-07-29T19:33:44.162Z,37.22
2022-07-29T19:38:31.963Z,36.67
2022-07-29T19:43:50.083Z,36.78
2022-07-29T19:48:18.074Z,36.95
2022-07-29T19:53:10.672Z,37.29
2022-07-29T19:58:03.148Z,37.62
2022-07-29T20:02:55.779Z,38.19
2022-07-29T20:07:48.242Z,38.51
2022-07-29T20:12:40.896Z,38.72
2022-07-29T20:17:34.133Z,38.85
2022-07-29T20:22:26.769Z,39.54
2022-07-29T20:32:12.513Z,40.02
2022-07-29T20:41:57.455Z,40.44
2022-07-29T20:51:43.363Z,40.24
2022-07-29T21:01:27.858Z,40.76
2022-07-29T21:06:20.613Z,40.57
2022-07-29T21:11:13.045Z,40.82
2022-07-29T21:16:09.413Z,41.09
2022-07-29T21:20:58.378Z,40.99
2022-07-29T21:25:51.080Z,40.88
2022-07-29T21:30:43.684Z,40.91
2022-07-29T21:36:03.758Z,41
2022-07-29T21:40:28.526Z,40.84
2022-07-29T21:45:21.237Z,40.97
2022-07-29T21:50:13.812Z,40.84
2022-07-29T21:55:06.328Z,40.72
2022-07-29T22:00:02.611Z,41.02
2022-07-29T22:04:51.698Z,40.93
2022-07-29T22:09:44.465Z,40.79
2022-07-29T22:14:37.162Z,40.55
2022-07-29T22:19:30.281Z,40.49
2022-07-29T22:24:22.600Z,40.33
2022-07-29T22:29:15.501Z,40.62
2022-07-29T22:34:07.938Z,40.39
2022-07-29T22:39:00.614Z,40.51
2022-07-29T22:43:53.162Z,40.46
2022-07-29T22:48:45.719Z,40.61
2022-07-29T22:53:38.265Z,40.48
2022-07-29T22:58:30.808Z,40.16
2022-07-29T23:03:23.455Z,40.47
2022-07-29T23:08:15.953Z,40.36
2022-07-29T23:13:08.705Z,40.29
2022-07-29T23:18:01.302Z,40.28
2022-07-29T23:22:53.776Z,40.32
2022-07-29T23:27:46.322Z,40.55
2022-07-29T23:32:39.146Z,40.67
2022-07-29T23:37:31.452Z,40.61
2022-07-29T23:42:24.216Z,40.81
2022-07-29T23:47:16.276Z,40.82
2022-07-29T23:52:08.573Z,40.86
2022-07-29T23:57:01.407Z,41.19
